createdAt,value
2018-11-23T00:04:15.691Z,30.88
2018-11-23T00:10:53.280Z,29.67
2018-11-23T00:17:35.236Z,29.30
2018-11-23T00:24:32.420Z,33.05
2018-11-23T00:33:48.047Z,32.83
2018-11-23T00:40:19.748Z,35.98
2018-11-23T00:47:07.990Z,26.93
2018-11-23T00:54:03.983Z,30.77
2018-11-23T01:00:37.919Z,28.95
2018-11-23T01:07:08.571Z,26.07
2018-11-23T01:13:36.497Z,27.70
2018-11-23T01:20:13.795Z,27.42
2018-11-23T01:26:49.380Z,34.20
2018-11-23T01:36:12.091Z,32.37
2018-11-23T01:42:34.749Z,32.73
2018-11-23T01:49:00.562Z,31.00
2018-11-23T01:55:38.390Z,27.22
2018-11-23T02:02:16.405Z,26.35
2018-11-23T02:08:48.335Z,23.22
2018-11-23T02:15:22.571Z,31.33
2018-11-23T02:21:49.036Z,28.17
2018-11-23T02:28:13.856Z,36.30
2018-11-23T02:38:03.669Z,28.52
2018-11-23T02:44:28.504Z,28.15
2018-11-23T02:50:56.332Z,31.57
2018-11-23T02:57:21.160Z,24.55
2018-11-23T03:03:47.014Z,27.22
2018-11-23T03:10:23.871Z,28.10
2018-11-23T03:17:02.103Z,27.42
2018-11-23T03:23:37.773Z,30.50
2018-11-23T03:30:20.734Z,24.20
2018-11-23T03:40:21.718Z,23.75
2018-11-23T03:47:01.629Z,33.35
2018-11-23T03:53:36.538Z,25.35
2018-11-23T04:00:25.590Z,25.80
2018-11-23T04:07:02.888Z,23.62
2018-11-23T04:13:28.347Z,26.97
2018-11-23T04:19:54.158Z,23.45
2018-11-23T04:26:24.638Z,22.85
2018-11-23T04:32:41.758Z,25.35
2018-11-23T04:42:21.793Z,25.62
2018-11-23T04:49:00.469Z,26.10
2018-11-23T04:55:37.401Z,26.27
2018-11-23T05:02:15.035Z,24.57
2018-11-23T05:08:54.278Z,24.70
2018-11-23T05:15:22.143Z,24.15
2018-11-23T05:18:15.830Z,27.20
2018-11-23T05:24:50.739Z,25.37
2018-11-23T05:31:26.711Z,28.95
2018-11-23T05:38:04.604Z,32.00
2018-11-23T05:44:30.449Z,21.85
2018-11-23T05:51:07.349Z,25.00
2018-11-23T05:57:46.302Z,29.85
2018-11-23T06:04:10.101Z,34.53
2018-11-23T06:10:32.997Z,26.62
2018-11-23T06:16:55.679Z,27.00
2018-11-23T06:23:24.527Z,29.48
2018-11-23T06:29:49.341Z,24.90
2018-11-23T06:36:12.299Z,25.27
2018-11-23T06:46:25.185Z,25.82
2018-11-23T06:52:49.331Z,26.27
2018-11-23T06:59:15.888Z,22.22
2018-11-23T07:05:40.638Z,27.67
2018-11-23T07:12:06.486Z,25.48
2018-11-23T07:18:29.411Z,24.92
2018-11-23T07:24:55.090Z,31.07
2018-11-23T07:31:19.893Z,26.30
2018-11-23T07:37:45.712Z,25.35
2018-11-23T07:47:57.841Z,30.82
2018-11-23T07:54:21.568Z,30.32
2018-11-23T08:00:43.346Z,21.90
2018-11-23T08:07:07.190Z,26.67
2018-11-23T08:13:18.852Z,30.10
2018-11-23T08:19:47.425Z,30.52
2018-11-23T08:26:16.889Z,39.43
2018-11-23T08:32:44.368Z,32.27
2018-11-23T08:39:08.167Z,29.60
2018-11-23T08:49:23.261Z,27.93
2018-11-23T08:55:55.138Z,35.07
2018-11-23T09:02:19.950Z,67.67
2018-11-23T09:08:43.748Z,30.53
2018-11-23T09:15:06.560Z,32.77
2018-11-23T09:21:30.518Z,37.17
2018-11-23T09:27:57.208Z,46.23
2018-11-23T09:34:23.131Z,39.63
2018-11-23T09:40:48.164Z,41.93
2018-11-23T09:50:38.688Z,49.90
2018-11-23T09:57:03.459Z,40.07
2018-11-23T10:03:27.299Z,46.67
2018-11-23T10:10:05.321Z,42.90
2018-11-23T10:16:44.146Z,38.47
2018-11-23T10:23:11.033Z,38.57
2018-11-23T10:29:32.761Z,37.93
2018-11-23T10:35:58.625Z,36.50
2018-11-23T10:42:21.467Z,43.00
2018-11-23T10:52:44.544Z,48.90
2018-11-23T10:59:09.639Z,43.03
2018-11-23T11:05:51.399Z,34.60
2018-11-23T11:12:19.294Z,43.90
2018-11-23T11:18:55.050Z,46.43
2018-11-23T11:25:32.776Z,37.73
2018-11-23T11:32:12.021Z,43.00
2018-11-23T11:38:52.265Z,48.03
2018-11-23T11:45:29.176Z,42.97
2018-11-23T11:51:30.450Z,50.90
2018-11-23T11:58:05.368Z,39.30
2018-11-23T12:04:29.167Z,48.00
2018-11-23T12:10:52.959Z,41.20
2018-11-23T12:17:16.762Z,41.40
2018-11-23T12:23:41.637Z,39.63
2018-11-23T12:30:05.429Z,45.13
2018-11-23T12:36:28.159Z,45.00
2018-11-23T12:43:05.088Z,35.00
2018-11-23T12:49:28.894Z,41.97
2018-11-23T12:55:20.389Z,45.23
2018-11-23T13:01:33.057Z,42.50
2018-11-23T13:07:58.882Z,36.97
2018-11-23T13:14:23.712Z,40.67
2018-11-23T13:20:46.478Z,33.43
2018-11-23T13:27:16.406Z,34.60
2018-11-23T13:33:41.102Z,46.90
2018-11-23T13:40:05.269Z,44.30
2018-11-23T13:46:30.749Z,37.13
2018-11-23T13:53:00.647Z,41.70
2018-11-23T14:03:13.048Z,31.33
2018-11-23T14:09:36.829Z,33.07
2018-11-23T14:16:02.296Z,33.93
2018-11-23T14:22:26.100Z,33.47
2018-11-23T14:28:50.306Z,37.83
2018-11-23T14:35:14.107Z,33.37
2018-11-23T14:41:37.855Z,34.83
2018-11-23T14:48:16.462Z,37.23
2018-11-23T14:54:53.725Z,41.13
2018-11-23T15:04:31.148Z,32.27
2018-11-23T15:11:10.101Z,32.77
2018-11-23T15:17:35.901Z,37.50
2018-11-23T15:24:00.892Z,44.17
2018-11-23T15:30:27.541Z,33.10
2018-11-23T15:36:56.369Z,35.83
2018-11-23T15:58:53.672Z,34.23
2018-11-23T16:19:36.763Z,44.10
2018-11-23T16:40:15.399Z,31.77
2018-11-23T17:00:51.258Z,45.60
2018-11-23T17:21:32.935Z,36.30
2018-11-23T17:42:11.215Z,34.17
2018-11-23T18:02:51.313Z,34.30
2018-11-23T18:23:30.368Z,33.47
2018-11-23T18:44:08.612Z,33.07
2018-11-23T19:04:46.031Z,35.50
2018-11-23T19:25:25.094Z,39.67
2018-11-23T19:46:05.788Z,33.60
2018-11-23T20:06:42.869Z,22.77
2018-11-23T20:27:20.227Z,24.50
2018-11-23T20:48:00.519Z,23.70
2018-11-23T21:08:37.836Z,23.27
2018-11-23T21:29:16.999Z,26.27
2018-11-23T21:49:59.401Z,23.53
2018-11-23T22:10:36.350Z,21.63
2018-11-23T22:31:13.772Z,28.77
2018-11-23T22:51:52.012Z,32.60
2018-11-23T23:12:29.027Z,30.73
2018-11-23T23:33:05.630Z,29.97
2018-11-23T23:53:45.935Z,35.20
